createdAt,value
2022-12-26T00:00:51.481Z,99976.16
2022-12-26T00:03:17.834Z,99964.56
2022-12-26T00:05:44.372Z,99968.72
2022-12-26T00:08:10.779Z,99984.53
2022-12-26T00:10:38.567Z,99976.91
2022-12-26T00:13:40.307Z,99974.22
2022-12-26T00:15:51.487Z,99976.25
2022-12-26T00:18:17.947Z,99991.06
2022-12-26T00:20:44.410Z,99988.25
2022-12-26T00:23:10.833Z,99984.72
2022-12-26T00:25:38.578Z,99986.00
2022-12-26T00:28:05.106Z,99984.31
2022-12-26T00:30:31.527Z,99985.47
2022-12-26T00:32:57.978Z,99989.16
2022-12-26T00:35:24.419Z,99986.63
2022-12-26T00:37:50.897Z,99980.75
2022-12-26T00:40:18.612Z,99982.78
2022-12-26T00:42:46.401Z,99990.59
2022-12-26T00:45:12.806Z,99991.31
2022-12-26T00:47:39.208Z,99992.06
2022-12-26T00:50:14.073Z,99990.56
2022-12-26T00:52:41.606Z,99991.84
2022-12-26T00:55:09.306Z,100007.47
2022-12-26T00:57:35.725Z,100010.16
2022-12-26T01:00:04.237Z,100017.03
2022-12-26T01:02:30.792Z,100002.28
2022-12-26T01:04:57.828Z,99995.06
2022-12-26T01:07:24.771Z,100003.44
2022-12-26T01:09:51.180Z,100014.75
2022-12-26T01:12:17.641Z,100028.13
2022-12-26T01:14:44.379Z,100030.09
2022-12-26T01:17:12.146Z,100042.59
2022-12-26T01:19:38.559Z,100032.69
2022-12-26T01:22:05.008Z,100041.88
2022-12-26T01:24:31.418Z,100050.38
2022-12-26T01:26:57.799Z,100040.91
2022-12-26T01:29:24.209Z,100031.81
2022-12-26T01:31:50.736Z,100034.06
2022-12-26T01:34:18.580Z,100039.53
2022-12-26T01:36:44.989Z,100056.81
2022-12-26T01:39:11.387Z,100065.72
2022-12-26T01:41:37.819Z,100053.13
2022-12-26T01:44:06.138Z,100046.72
2022-12-26T01:46:38.303Z,100059.00
2022-12-26T01:49:13.315Z,100052.53
2022-12-26T01:51:44.747Z,100062.34
2022-12-26T01:54:41.208Z,100047.31
2022-12-26T01:57:01.202Z,100046.47
2022-12-26T01:59:32.922Z,100040.78
2022-12-26T02:02:00.374Z,100034.28
2022-12-26T02:04:32.928Z,100037.72
2022-12-26T02:07:04.175Z,100040.31
2022-12-26T02:09:31.133Z,100044.53
2022-12-26T02:12:35.917Z,100059.13
2022-12-26T02:14:49.651Z,100077.78
2022-12-26T02:17:16.888Z,100078.94
2022-12-26T02:19:54.600Z,100071.09
2022-12-26T02:22:41.205Z,100070.63
2022-12-26T02:25:43.032Z,100065.88
2022-12-26T02:28:36.352Z,100074.84
2022-12-26T02:31:07.480Z,100070.81
2022-12-26T02:33:44.155Z,100081.84
2022-12-26T02:36:42.545Z,100081.25
2022-12-26T02:39:45.542Z,100087.00
2022-12-26T02:42:18.620Z,100099.88
2022-12-26T02:44:54.014Z,100101.47
2022-12-26T02:47:30.061Z,100102.19
2022-12-26T02:50:04.025Z,100106.25
2022-12-26T02:52:39.050Z,100092.81
2022-12-26T02:55:09.426Z,100105.41
2022-12-26T02:57:41.605Z,100083.50
2022-12-26T03:00:13.756Z,100085.06
2022-12-26T03:02:47.245Z,100097.63
2022-12-26T03:05:21.574Z,100087.66
2022-12-26T03:07:48.518Z,100089.44
2022-12-26T03:10:18.330Z,100086.47
2022-12-26T03:12:50.219Z,100080.84
2022-12-26T03:15:20.588Z,100083.16
2022-12-26T03:17:52.931Z,100083.88
2022-12-26T03:20:23.877Z,100097.06
2022-12-26T03:22:54.588Z,100113.34
2022-12-26T03:25:29.917Z,100095.66
2022-12-26T03:27:57.641Z,100096.75
2022-12-26T03:30:24.714Z,100100.16
2022-12-26T03:32:55.196Z,100116.63
2022-12-26T03:35:22.372Z,100113.75
2022-12-26T03:37:53.316Z,100107.84
2022-12-26T03:40:38.414Z,100100.81
2022-12-26T03:43:15.520Z,100091.03
2022-12-26T03:45:50.720Z,100100.66
2022-12-26T03:48:26.288Z,100110.00
2022-12-26T03:50:59.679Z,100115.72
2022-12-26T03:53:31.192Z,100111.09
2022-12-26T03:56:06.471Z,100115.81
2022-12-26T03:58:41.121Z,100109.53
2022-12-26T04:01:12.518Z,100115.06
2022-12-26T04:03:43.770Z,100102.94
2022-12-26T04:06:18.528Z,100108.78
2022-12-26T04:08:49.891Z,100105.25
2022-12-26T04:11:20.047Z,100108.31
2022-12-26T04:13:54.450Z,100118.97
2022-12-26T04:16:30.309Z,100134.97
2022-12-26T04:19:05.853Z,100140.25
2022-12-26T04:21:39.676Z,100137.81
2022-12-26T04:24:12.009Z,100122.09
2022-12-26T04:26:44.002Z,100125.06
2022-12-26T04:29:10.488Z,100121.34
2022-12-26T04:31:45.748Z,100115.16
2022-12-26T04:34:21.656Z,100123.88
2022-12-26T04:36:53.929Z,100125.06
2022-12-26T04:39:26.114Z,100131.44
2022-12-26T04:41:54.342Z,100131.53
2022-12-26T04:44:23.638Z,100127.84
2022-12-26T04:46:52.314Z,100122.38
2022-12-26T04:49:20.268Z,100135.53
2022-12-26T04:51:46.649Z,100131.97
2022-12-26T04:54:13.057Z,100124.78
2022-12-26T04:56:39.453Z,100124.38
2022-12-26T04:59:05.851Z,100118.97
2022-12-26T05:01:32.391Z,100120.78
2022-12-26T05:03:58.959Z,100130.69
2022-12-26T05:06:26.725Z,100123.03
2022-12-26T05:08:53.152Z,100135.88
2022-12-26T05:11:19.605Z,100131.44
2022-12-26T05:13:46.073Z,100127.25
2022-12-26T05:16:12.678Z,100136.47
2022-12-26T05:18:39.105Z,100136.13
2022-12-26T05:21:07.564Z,100144.50
2022-12-26T05:23:35.405Z,100157.84
2022-12-26T05:26:02.361Z,100155.41
2022-12-26T05:28:29.061Z,100146.22
2022-12-26T05:30:55.511Z,100143.44
2022-12-26T05:33:21.992Z,100146.22
2022-12-26T05:35:49.604Z,100142.88
2022-12-26T05:38:16.059Z,100140.06
2022-12-26T05:40:43.844Z,100139.44
2022-12-26T05:43:10.211Z,100146.22
2022-12-26T05:45:36.675Z,100140.16
2022-12-26T05:48:03.457Z,100138.03
2022-12-26T05:50:29.939Z,100138.41
2022-12-26T05:52:56.712Z,100112.75
2022-12-26T05:55:23.154Z,100114.38
2022-12-26T05:57:51.076Z,100122.81
2022-12-26T06:00:17.760Z,100132.81
2022-12-26T06:02:44.410Z,100130.88
2022-12-26T06:05:10.902Z,100145.19
2022-12-26T06:07:37.793Z,100149.94
2022-12-26T06:10:05.175Z,100153.53
2022-12-26T06:12:31.675Z,100150.59
2022-12-26T06:14:59.421Z,100159.84
2022-12-26T06:17:25.871Z,100154.28
2022-12-26T06:19:52.278Z,100151.31
2022-12-26T06:22:18.763Z,100159.44
2022-12-26T06:24:45.194Z,100166.91
2022-12-26T06:27:11.617Z,100170.84
2022-12-26T06:29:38.069Z,100173.50
2022-12-26T06:32:06.039Z,100164.34
2022-12-26T06:34:32.443Z,100165.97
2022-12-26T06:36:58.867Z,100148.81
2022-12-26T06:39:25.264Z,100157.81
2022-12-26T06:41:52.776Z,100163.09
2022-12-26T06:44:19.258Z,100156.38
2022-12-26T06:46:45.775Z,100167.75
2022-12-26T06:49:13.706Z,100170.31
2022-12-26T06:51:40.231Z,100161.50
2022-12-26T06:54:06.996Z,100167.22
2022-12-26T06:56:33.448Z,100173.41
2022-12-26T06:59:01.421Z,100163.97
2022-12-26T07:01:30.255Z,100170.78
2022-12-26T07:03:57.440Z,100183.63
2022-12-26T07:06:27.535Z,100187.44
2022-12-26T07:08:57.637Z,100191.16
2022-12-26T07:11:26.114Z,100186.22
2022-12-26T07:13:53.768Z,100186.16
2022-12-26T07:16:20.767Z,100186.75
2022-12-26T07:18:47.300Z,100207.78
2022-12-26T07:21:15.660Z,100191.50
2022-12-26T07:23:43.438Z,100211.16
2022-12-26T07:26:09.995Z,100223.19
2022-12-26T07:28:37.673Z,100218.50
2022-12-26T07:31:04.748Z,100218.38
2022-12-26T07:33:31.861Z,100226.81
2022-12-26T07:35:59.323Z,100228.00
2022-12-26T07:38:25.753Z,100238.22
2022-12-26T07:40:54.815Z,100230.63
2022-12-26T07:43:21.126Z,100228.31
2022-12-26T07:45:50.356Z,100237.16
2022-12-26T07:48:16.928Z,100236.53
2022-12-26T07:50:43.626Z,100234.41
2022-12-26T07:53:10.051Z,100230.81
2022-12-26T07:55:36.477Z,100233.41
2022-12-26T07:58:04.240Z,100232.78
2022-12-26T08:00:30.668Z,100226.03
2022-12-26T08:03:02.842Z,100225.53
2022-12-26T08:05:33.116Z,100242.94
2022-12-26T08:07:59.577Z,100236.09
2022-12-26T08:10:26.022Z,100243.59
2022-12-26T08:12:52.468Z,100229.84
2022-12-26T08:15:20.262Z,100237.97
2022-12-26T08:17:46.690Z,100235.88
2022-12-26T08:20:13.113Z,100234.72
2022-12-26T08:22:39.560Z,100245.56
2022-12-26T08:25:07.999Z,100243.78
2022-12-26T08:27:34.446Z,100239.06
2022-12-26T08:30:00.889Z,100241.72
2022-12-26T08:32:28.763Z,100238.72
2022-12-26T08:34:55.215Z,100239.47
2022-12-26T08:37:21.751Z,100240.16
2022-12-26T08:39:48.854Z,100237.13
2022-12-26T08:42:15.297Z,100241.19
2022-12-26T08:44:41.739Z,100243.69
2022-12-26T08:47:08.151Z,100242.75
2022-12-26T08:49:35.977Z,100251.06
2022-12-26T08:52:02.533Z,100257.97
2022-12-26T08:54:28.953Z,100257.44
2022-12-26T08:56:55.516Z,100257.38
2022-12-26T08:59:23.058Z,100275.38
2022-12-26T09:01:49.616Z,100276.44
2022-12-26T09:04:16.168Z,100280.97
2022-12-26T09:06:44.189Z,100288.38
2022-12-26T09:09:11.870Z,100292.66
2022-12-26T09:11:39.491Z,100293.19
2022-12-26T09:14:06.527Z,100293.00
2022-12-26T09:16:38.648Z,100295.53
2022-12-26T09:19:09.200Z,100297.50
2022-12-26T09:21:35.683Z,100307.03
2022-12-26T09:24:05.450Z,100306.22
2022-12-26T09:26:32.316Z,100308.47
2022-12-26T09:28:59.345Z,100310.16
2022-12-26T09:31:28.116Z,100315.47
2022-12-26T09:33:54.984Z,100310.53
2022-12-26T09:36:23.232Z,100319.72
2022-12-26T09:38:50.179Z,100331.09
2022-12-26T09:41:43.955Z,100343.72
2022-12-26T09:44:17.388Z,100341.03
2022-12-26T09:46:50.512Z,100344.41
2022-12-26T09:49:20.092Z,100346.16
2022-12-26T09:51:51.670Z,100349.06
2022-12-26T09:54:26.472Z,100341.03
2022-12-26T09:57:02.907Z,100344.78
2022-12-26T09:59:37.912Z,100335.06
2022-12-26T10:02:04.578Z,100342.13
2022-12-26T10:04:31.124Z,100338.69
2022-12-26T10:07:07.557Z,100348.59
2022-12-26T10:09:52.625Z,100348.78
2022-12-26T10:12:35.491Z,100355.75
2022-12-26T10:15:12.579Z,100351.47
2022-12-26T10:17:44.380Z,100350.22
2022-12-26T10:20:21.862Z,100355.31
2022-12-26T10:23:09.968Z,100355.63
2022-12-26T10:25:45.691Z,100357.44
2022-12-26T10:28:21.467Z,100355.41
2022-12-26T10:30:50.564Z,100354.81
2022-12-26T10:33:18.383Z,100356.97
2022-12-26T10:35:46.051Z,100356.13
2022-12-26T10:38:25.697Z,100350.47
2022-12-26T10:40:56.146Z,100331.97
2022-12-26T10:43:28.441Z,100337.88
2022-12-26T10:46:13.188Z,100342.28
2022-12-26T10:48:39.944Z,100344.06
2022-12-26T10:51:06.423Z,100335.19
2022-12-26T10:53:42.298Z,100336.19
2022-12-26T10:56:14.660Z,100344.31
2022-12-26T10:58:45.397Z,100341.72
2022-12-26T11:01:32.581Z,100346.84
2022-12-26T11:04:00.889Z,100342.41
2022-12-26T11:06:31.762Z,100350.69
2022-12-26T11:08:59.148Z,100354.63
2022-12-26T11:11:27.491Z,100353.16
2022-12-26T11:14:02.068Z,100357.16
2022-12-26T11:16:31.975Z,100357.16
2022-12-26T11:18:58.921Z,100349.69
2022-12-26T11:21:27.550Z,100349.41
2022-12-26T11:24:11.079Z,100345.25
2022-12-26T11:26:38.220Z,100333.47
2022-12-26T11:29:10.897Z,100337.19
2022-12-26T11:31:39.087Z,100349.47
2022-12-26T11:34:08.664Z,100350.03
2022-12-26T11:36:37.396Z,100352.59
2022-12-26T11:39:07.399Z,100355.06
2022-12-26T11:41:37.082Z,100351.41
2022-12-26T11:44:30.107Z,100351.41
2022-12-26T11:47:00.050Z,100355.13
2022-12-26T11:49:31.909Z,100355.84
2022-12-26T11:52:00.208Z,100362.38
2022-12-26T11:54:30.607Z,100357.00
2022-12-26T11:57:17.347Z,100361.78
2022-12-26T11:59:45.832Z,100355.63
2022-12-26T12:02:17.382Z,100364.03
2022-12-26T12:04:45.142Z,100358.50
2022-12-26T12:07:20.919Z,100357.31
2022-12-26T12:09:53.896Z,100369.78
2022-12-26T12:12:25.553Z,100364.28
2022-12-26T12:15:03.044Z,100375.16
2022-12-26T12:17:34.600Z,100374.59
2022-12-26T12:20:17.697Z,100373.94
2022-12-26T12:22:59.156Z,100369.72
2022-12-26T12:25:40.525Z,100365.53
2022-12-26T12:28:27.283Z,100356.84
2022-12-26T12:31:03.296Z,100357.13
2022-12-26T12:33:45.120Z,100363.44
2022-12-26T12:36:15.837Z,100368.56
2022-12-26T12:38:58.637Z,100359.22
2022-12-26T12:41:42.400Z,100348.78
2022-12-26T12:44:14.202Z,100351.84
2022-12-26T12:46:54.046Z,100365.19
2022-12-26T12:49:38.369Z,100355.91
2022-12-26T12:52:19.805Z,100349.94
2022-12-26T12:55:24.056Z,100353.16
2022-12-26T12:57:56.315Z,100358.19
2022-12-26T13:00:26.491Z,100364.66
2022-12-26T13:03:00.125Z,100377.16
2022-12-26T13:05:38.387Z,100371.38
2022-12-26T13:08:11.116Z,100369.94
2022-12-26T13:10:46.125Z,100361.41
2022-12-26T13:13:21.681Z,100360.72
2022-12-26T13:15:52.621Z,100355.00
2022-12-26T13:18:23.714Z,100368.09
2022-12-26T13:20:53.284Z,100376.97
2022-12-26T13:23:27.205Z,100373.41
2022-12-26T13:26:06.361Z,100374.91
2022-12-26T13:28:39.834Z,100391.25
2022-12-26T13:31:06.399Z,100381.94
2022-12-26T13:33:34.969Z,100382.25
2022-12-26T13:36:03.617Z,100375.25
2022-12-26T13:39:03.325Z,100375.78
2022-12-26T13:41:31.679Z,100368.25
2022-12-26T13:44:04.269Z,100375.28
2022-12-26T13:46:54.677Z,100369.91
2022-12-26T13:49:34.746Z,100376.63
2022-12-26T13:52:15.931Z,100391.69
2022-12-26T13:55:27.907Z,100394.19
2022-12-26T13:58:22.380Z,100401.41
2022-12-26T14:00:50.556Z,100410.94
2022-12-26T14:03:36.308Z,100413.06
2022-12-26T14:06:54.022Z,100419.25
2022-12-26T14:09:49.594Z,100413.78
2022-12-26T14:12:31.112Z,100419.13
2022-12-26T14:15:15.962Z,100426.97
2022-12-26T14:17:51.931Z,100437.50
2022-12-26T14:20:38.852Z,100449.69
2022-12-26T14:23:21.332Z,100462.25
2022-12-26T14:25:54.625Z,100462.88
2022-12-26T14:28:27.690Z,100448.88
2022-12-26T14:31:07.158Z,100454.91
2022-12-26T14:33:44.723Z,100460.25
2022-12-26T14:36:22.609Z,100457.59
2022-12-26T14:38:57.717Z,100469.63
2022-12-26T14:41:24.702Z,100482.00
2022-12-26T14:43:56.365Z,100491.03
2022-12-26T14:46:59.705Z,100495.69
2022-12-26T14:49:37.863Z,100489.69
2022-12-26T14:52:36.228Z,100484.66
2022-12-26T14:55:40.932Z,100483.19
2022-12-26T14:58:25.005Z,100484.16
2022-12-26T15:00:52.541Z,100496.38
2022-12-26T15:03:56.833Z,100497.41
2022-12-26T15:06:50.287Z,100498.53
2022-12-26T15:09:38.726Z,100501.00
2022-12-26T15:12:29.272Z,100518.09
2022-12-26T15:15:22.578Z,100518.59
2022-12-26T15:18:03.942Z,100524.69
2022-12-26T15:21:03.586Z,100530.28
2022-12-26T15:23:45.828Z,100537.06
2022-12-26T15:26:36.477Z,100545.47
2022-12-26T15:29:21.117Z,100552.00
2022-12-26T15:31:57.961Z,100558.66
2022-12-26T15:34:47.354Z,100564.88
2022-12-26T15:37:24.366Z,100575.63
2022-12-26T15:39:59.389Z,100585.34
2022-12-26T15:42:39.915Z,100598.63
2022-12-26T15:45:27.929Z,100593.06
2022-12-26T15:48:02.582Z,100595.69
2022-12-26T15:50:32.789Z,100599.19
2022-12-26T15:53:23.464Z,100618.75
2022-12-26T15:56:07.379Z,100612.06
2022-12-26T15:58:53.905Z,100623.75
2022-12-26T16:01:36.733Z,100621.69
2022-12-26T16:04:07.555Z,100635.06
2022-12-26T16:06:49.580Z,100631.00
2022-12-26T16:09:26.703Z,100638.56
2022-12-26T16:11:55.769Z,100632.59
2022-12-26T16:14:26.444Z,100644.97
2022-12-26T16:16:54.808Z,100642.91
2022-12-26T16:19:25.896Z,100645.25
2022-12-26T16:21:57.726Z,100647.41
2022-12-26T16:24:26.568Z,100659.06
2022-12-26T16:26:53.128Z,100654.56
2022-12-26T16:29:21.035Z,100662.88
2022-12-26T16:31:47.664Z,100666.06
2022-12-26T16:34:18.256Z,100669.22
2022-12-26T16:36:45.354Z,100664.53
2022-12-26T16:39:12.736Z,100675.84
2022-12-26T16:41:57.891Z,100679.91
2022-12-26T16:44:30.734Z,100688.78
2022-12-26T16:47:00.563Z,100687.88
2022-12-26T16:49:29.934Z,100700.03
2022-12-26T16:51:56.441Z,100705.03
2022-12-26T16:54:29.277Z,100693.25
2022-12-26T16:57:04.083Z,100701.97
2022-12-26T16:59:40.227Z,100697.16
2022-12-26T17:02:15.180Z,100708.78
2022-12-26T17:04:54.342Z,100717.66
2022-12-26T17:07:24.966Z,100720.00
2022-12-26T17:09:59.246Z,100720.47
2022-12-26T17:12:28.706Z,100734.31
2022-12-26T17:14:58.418Z,100744.97
2022-12-26T17:17:36.310Z,100746.94
2022-12-26T17:20:37.948Z,100747.47
2022-12-26T17:23:34.643Z,100764.72
2022-12-26T17:26:19.207Z,100765.69
2022-12-26T17:28:45.678Z,100766.25
2022-12-26T17:31:16.475Z,100777.72
2022-12-26T17:33:47.905Z,100792.81
2022-12-26T17:39:11.402Z,100783.22
2022-12-26T17:41:41.981Z,100797.22
2022-12-26T17:44:39.412Z,100799.13
2022-12-26T17:47:15.703Z,100800.38
2022-12-26T17:49:42.447Z,100808.19
2022-12-26T17:52:11.500Z,100808.28
2022-12-26T17:54:37.982Z,100808.53
2022-12-26T17:57:04.554Z,100813.13
2022-12-26T17:59:30.993Z,100823.09
2022-12-26T18:01:57.535Z,100838.88
2022-12-26T18:04:24.002Z,100830.03
2022-12-26T18:06:50.475Z,100830.44
2022-12-26T18:09:26.071Z,100831.31
2022-12-26T18:11:53.124Z,100829.25
2022-12-26T18:14:19.711Z,100838.94
2022-12-26T18:16:47.210Z,100844.56
2022-12-26T18:19:15.431Z,100854.59
2022-12-26T18:21:42.645Z,100861.03
2022-12-26T18:24:09.434Z,100874.56
2022-12-26T18:26:37.463Z,100867.56
2022-12-26T18:29:03.952Z,100870.53
2022-12-26T18:31:30.489Z,100881.47
2022-12-26T18:33:57.603Z,100881.31
2022-12-26T18:36:29.638Z,100881.22
2022-12-26T18:38:56.071Z,100880.88
2022-12-26T18:41:22.492Z,100883.63
2022-12-26T18:43:50.268Z,100895.50
2022-12-26T18:46:18.338Z,100897.38
2022-12-26T18:48:45.451Z,100911.31
2022-12-26T18:51:12.267Z,100919.94
2022-12-26T18:53:39.111Z,100924.88
2022-12-26T18:56:06.191Z,100933.44
2022-12-26T18:58:32.811Z,100940.81
2022-12-26T19:01:02.708Z,100934.06
2022-12-26T19:03:29.257Z,100945.78
2022-12-26T19:05:55.695Z,100943.38
2022-12-26T19:08:22.129Z,100946.72
2022-12-26T19:10:48.606Z,100957.38
2022-12-26T19:13:16.088Z,100967.03
2022-12-26T19:15:45.521Z,100982.72
2022-12-26T19:18:13.448Z,100984.16
2022-12-26T19:20:44.136Z,100984.91
2022-12-26T19:23:10.999Z,100983.94
2022-12-26T19:25:37.431Z,100983.94
2022-12-26T19:28:03.960Z,100987.19
2022-12-26T19:30:35.198Z,100994.78
2022-12-26T19:33:05.078Z,100993.94
2022-12-26T19:35:32.964Z,100997.44
2022-12-26T19:37:59.436Z,101007.94
2022-12-26T19:40:25.943Z,101013.38
2022-12-26T19:42:52.803Z,101023.50
2022-12-26T19:45:19.327Z,101024.25
2022-12-26T19:47:45.774Z,101026.38
2022-12-26T19:50:12.612Z,101032.69
2022-12-26T19:52:40.481Z,101033.50
2022-12-26T19:55:10.172Z,101022.03
2022-12-26T19:57:36.603Z,101025.66
2022-12-26T20:00:04.273Z,101023.72
2022-12-26T20:02:38.947Z,101028.56
2022-12-26T20:05:06.573Z,101033.22
2022-12-26T20:07:33.370Z,101036.97
2022-12-26T20:10:01.171Z,101045.66
2022-12-26T20:12:27.600Z,101055.06
2022-12-26T20:14:54.038Z,101055.06
2022-12-26T20:17:20.506Z,101061.25
2022-12-26T20:19:47.816Z,101061.16
2022-12-26T20:22:14.295Z,101063.69
2022-12-26T20:24:40.807Z,101064.91
2022-12-26T20:27:08.577Z,101071.25
2022-12-26T20:29:35.023Z,101069.59
2022-12-26T20:32:01.434Z,101068.88
2022-12-26T20:34:27.899Z,101074.56
2022-12-26T20:36:54.340Z,101078.78
2022-12-26T20:39:21.120Z,101083.44
2022-12-26T20:41:47.590Z,101079.94
2022-12-26T20:44:16.570Z,101076.22
2022-12-26T20:46:44.055Z,101082.41
2022-12-26T20:49:10.687Z,101088.28
2022-12-26T20:51:39.368Z,101093.38
2022-12-26T20:54:06.961Z,101087.63
2022-12-26T20:56:33.579Z,101097.44
2022-12-26T20:59:00.184Z,101099.13
2022-12-26T21:01:28.681Z,101102.00
2022-12-26T21:03:56.469Z,101106.81
2022-12-26T21:06:27.268Z,101109.94
2022-12-26T21:08:54.710Z,101106.44
2022-12-26T21:11:23.547Z,101114.41
2022-12-26T21:13:51.768Z,101118.44
2022-12-26T21:16:20.873Z,101112.53
2022-12-26T21:18:48.855Z,101109.44
2022-12-26T21:21:18.075Z,101110.34
2022-12-26T21:23:44.796Z,101110.38
2022-12-26T21:26:11.383Z,101123.63
2022-12-26T21:28:38.365Z,101116.50
2022-12-26T21:31:07.216Z,101126.16
2022-12-26T21:33:35.868Z,101133.75
2022-12-26T21:36:09.885Z,101132.16
2022-12-26T21:38:36.583Z,101131.44
2022-12-26T21:41:05.946Z,101129.84
2022-12-26T21:43:32.370Z,101139.91
2022-12-26T21:46:01.348Z,101137.78
2022-12-26T21:48:28.059Z,101133.75
2022-12-26T21:50:54.509Z,101140.03
2022-12-26T21:53:22.306Z,101145.13
2022-12-26T21:55:48.759Z,101143.47
2022-12-26T21:58:15.168Z,101151.66
2022-12-26T22:00:41.790Z,101151.59
2022-12-26T22:03:08.706Z,101156.50
2022-12-26T22:05:37.583Z,101162.72
2022-12-26T22:08:05.784Z,101163.97
2022-12-26T22:10:35.152Z,101166.19
2022-12-26T22:13:02.821Z,101164.72
2022-12-26T22:15:29.358Z,101168.97
2022-12-26T22:17:56.035Z,101172.91
2022-12-26T22:20:23.283Z,101178.41
2022-12-26T22:22:49.907Z,101178.06
2022-12-26T22:25:16.528Z,101185.94
2022-12-26T22:27:44.521Z,101182.25
2022-12-26T22:30:11.919Z,101178.47
2022-12-26T22:32:38.580Z,101182.31
2022-12-26T22:35:05.833Z,101178.47
2022-12-26T22:37:32.310Z,101185.00
2022-12-26T22:39:58.764Z,101185.84
2022-12-26T22:42:25.221Z,101183.63
2022-12-26T22:44:53.069Z,101186.97
2022-12-26T22:47:19.718Z,101183.88
2022-12-26T22:49:46.168Z,101183.69
2022-12-26T22:52:15.847Z,101204.59
2022-12-26T22:54:42.621Z,101198.69
2022-12-26T22:57:09.675Z,101203.16
2022-12-26T23:00:06.897Z,101202.53
2022-12-26T23:02:24.031Z,101201.59
2022-12-26T23:04:51.143Z,101201.09
2022-12-26T23:07:20.352Z,101210.75
2022-12-26T23:09:47.060Z,101209.22
2022-12-26T23:12:14.082Z,101211.31
2022-12-26T23:14:40.767Z,101206.94
2022-12-26T23:17:10.351Z,101213.44
2022-12-26T23:19:43.515Z,101197.53
2022-12-26T23:22:10.336Z,101207.69
2022-12-26T23:24:36.797Z,101207.47
2022-12-26T23:27:11.668Z,101202.63
2022-12-26T23:29:38.330Z,101209.59
2022-12-26T23:32:05.702Z,101216.09
2022-12-26T23:34:32.185Z,101220.78
2022-12-26T23:37:00.351Z,101217.72
2022-12-26T23:39:26.904Z,101220.69
2022-12-26T23:41:53.423Z,101212.88
2022-12-26T23:44:19.921Z,101221.13
2022-12-26T23:46:46.524Z,101223.34
2022-12-26T23:49:13.788Z,101225.16
2022-12-26T23:51:40.379Z,101232.13
2022-12-26T23:54:08.787Z,101232.00
2022-12-26T23:56:36.232Z,101227.19
2022-12-26T23:59:03.005Z,101231.50
